Time;durP1;ratioP1;P1;durP2;ratioP2;P2;SDS_P1;SDS_P2;PMS_P1;PMS_P2;Temp;Humidity;BMP_temperature;BMP_pressure;BME280_temperature;BME280_humidity;BME280_pressure;Samples;Min_cycle;Max_cycle;Signal;HPM_P1;HPM_P2
2022/04/24 00:00:13;;;;;;;4.13;1.38;;;;;;;;;;4874593;29;20056;-72
2022/04/24 00:02:44;;;;;;;5.47;1.45;;;;;;;;;;4891710;29;20067;-72
2022/04/24 00:05:14;;;;;;;;;;;;;;;;;;4890935;29;20048;-71
2022/04/24 00:07:44;;;;;;;1.70;1.30;;;;;;;;;;4889728;29;19937;-71
2022/04/24 00:10:14;;;;;;;10.80;1.55;;;;;;;;;;4888496;29;20060;-71
2022/04/24 00:12:44;;;;;;;7.55;1.65;;;;;;;;;;4890637;29;20052;-72
2022/04/24 00:15:15;;;;;;;8.50;1.75;;;;;;;;;;4888337;29;20036;-72
2022/04/24 00:17:45;;;;;;;2.28;1.33;;;;;;;;;;4893994;29;20059;-71
2022/04/24 00:20:15;;;;;;;3.58;1.30;;;;;;;;;;4892064;29;20114;-71
2022/04/24 00:22:44;;;;;;;7.50;1.60;;;;;;;;;;4894014;29;20040;-72
2022/04/24 00:25:14;;;;;;;2.72;1.50;;;;;;;;;;4892167;29;20059;-71
2022/04/24 00:27:44;;;;;;;3.83;1.90;;;;;;;;;;4876710;29;20508;-71
2022/04/24 00:30:14;;;;;;;6.20;1.95;;;;;;;;;;4892231;29;20079;-71
2022/04/24 00:32:44;;;;;;;2.47;1.55;;;;;;;;;;4894284;29;20068;-71
2022/04/24 00:35:14;;;;;;;13.15;2.38;;;;;;;;;;4892008;29;20048;-71
2022/04/24 00:37:44;;;;;;;13.98;1.95;;;;;;;;;;4894234;29;20075;-72
2022/04/24 00:40:14;;;;;;;23.02;2.17;;;;;;;;;;4891293;29;20051;-71
2022/04/24 00:42:44;;;;;;;7.28;2.05;;;;;;;;;;4893273;29;20053;-71
2022/04/24 00:45:14;;;;;;;11.80;1.90;;;;;;;;;;4893317;29;20048;-71
2022/04/24 00:47:48;;;;;;;16.98;2.30;;;;;;;;;;4877993;29;20064;-71
2022/04/24 00:50:19;;;;;;;6.78;2.00;;;;;;;;;;4893602;29;20527;-71
2022/04/24 00:52:49;;;;;;;8.68;1.98;;;;;;;;;;4894768;29;20519;-76
2022/04/24 00:55:23;;;;;;;6.90;2.70;;;;;;;;;;4894655;29;20045;-71
2022/04/24 00:57:53;;;;;;;11.02;2.10;;;;;;;;;;4894278;29;20075;-71
2022/04/24 01:00:23;;;;;;;6.93;2.38;;;;;;;;;;4894323;29;20049;-71
2022/04/24 01:02:55;;;;;;;7.70;2.58;;;;;;;;;;4894622;29;20049;-71
2022/04/24 01:05:25;;;;;;;5.07;2.20;;;;;;;;;;4893520;29;20055;-71
2022/04/24 01:07:55;;;;;;;8.00;3.85;;;;;;;;;;4893263;29;20067;-71
2022/04/24 01:10:25;;;;;;;8.25;3.60;;;;;;;;;;4894011;29;20055;-71
2022/04/24 01:12:55;;;;;;;6.47;3.60;;;;;;;;;;4893974;29;20052;-71
2022/04/24 01:15:25;;;;;;;9.18;3.17;;;;;;;;;;4894209;29;20048;-71
2022/04/24 01:17:56;;;;;;;10.25;3.13;;;;;;;;;;4894260;29;20056;-72
2022/04/24 01:20:28;;;;;;;9.40;2.85;;;;;;;;;;4894299;29;20048;-71
2022/04/24 01:22:58;;;;;;;6.70;3.85;;;;;;;;;;4894050;29;20052;-71
2022/04/24 01:25:27;;;;;;;12.68;5.47;;;;;;;;;;4894081;29;20064;-71
2022/04/24 01:27:58;;;;;;;6.20;3.80;;;;;;;;;;4893312;29;20061;-71
2022/04/24 01:30:27;;;;;;;15.65;6.22;;;;;;;;;;4893295;29;20056;-71
2022/04/24 01:32:57;;;;;;;8.27;4.40;;;;;;;;;;4893970;29;20492;-72
2022/04/24 01:35:27;;;;;;;7.85;4.20;;;;;;;;;;4893347;29;20500;-71
2022/04/24 01:37:58;;;;;;;9.93;3.53;;;;;;;;;;4893826;29;20053;-71
2022/04/24 01:40:28;;;;;;;5.57;3.28;;;;;;;;;;4893409;29;20052;-71
2022/04/24 01:42:58;;;;;;;13.00;3.20;;;;;;;;;;4877092;29;20049;-72
2022/04/24 01:45:28;;;;;;;5.60;2.60;;;;;;;;;;4893630;29;20056;-71
2022/04/24 01:47:58;;;;;;;13.38;2.60;;;;;;;;;;4893705;29;20067;-71
2022/04/24 01:50:28;;;;;;;11.63;2.63;;;;;;;;;;4893490;29;20060;-71
2022/04/24 01:52:58;;;;;;;18.85;3.65;;;;;;;;;;4893458;29;20053;-72
2022/04/24 01:55:28;;;;;;;13.10;3.38;;;;;;;;;;4875856;29;20436;-74
2022/04/24 01:57:58;;;;;;;7.85;3.35;;;;;;;;;;4893547;29;20488;-71
2022/04/24 02:00:30;;;;;;;15.48;2.97;;;;;;;;;;4893519;29;20060;-71
2022/04/24 02:03:00;;;;;;;14.45;3.20;;;;;;;;;;4893947;29;20055;-71
2022/04/24 02:05:30;;;;;;;32.20;3.90;;;;;;;;;;4892004;29;20061;-71
2022/04/24 02:08:00;;;;;;;26.55;2.85;;;;;;;;;;4892586;29;20423;-72
2022/04/24 02:10:30;;;;;;;10.40;3.33;;;;;;;;;;4893056;29;20432;-71
2022/04/24 02:13:00;;;;;;;25.15;3.13;;;;;;;;;;4875455;29;20072;-71
2022/04/24 02:15:30;;;;;;;14.82;2.75;;;;;;;;;;4892810;29;20361;-71
2022/04/24 02:18:01;;;;;;;13.43;2.92;;;;;;;;;;4876492;29;20055;-71
2022/04/24 02:20:31;;;;;;;10.27;2.88;;;;;;;;;;4890127;29;20060;-71
2022/04/24 02:23:02;;;;;;;13.32;2.72;;;;;;;;;;4873072;29;20071;-71
2022/04/24 02:25:33;;;;;;;8.93;3.30;;;;;;;;;;4874417;29;20500;-71
2022/04/24 02:28:03;;;;;;;6.75;2.45;;;;;;;;;;4873317;29;20061;-71
2022/04/24 02:30:33;;;;;;;15.27;2.30;;;;;;;;;;4874103;29;20045;-71
2022/04/24 02:33:03;;;;;;;3.70;1.98;;;;;;;;;;4874309;29;20061;-71
2022/04/24 02:35:33;;;;;;;7.15;2.50;;;;;;;;;;4857822;29;20057;-71
2022/04/24 02:38:03;;;;;;;7.82;2.38;;;;;;;;;;4873728;29;20072;-71
2022/04/24 02:40:34;;;;;;;8.10;2.60;;;;;;;;;;4872638;29;20893;-71
2022/04/24 02:43:04;;;;;;;4.65;2.08;;;;;;;;;;4873619;29;20057;-71
2022/04/24 02:45:35;;;;;;;8.38;2.47;;;;;;;;;;4857184;29;20053;-71
2022/04/24 02:48:06;;;;;;;6.53;2.40;;;;;;;;;;4874611;29;20045;-72
2022/04/24 02:50:36;;;;;;;4.47;2.63;;;;;;;;;;4873616;29;20060;-71
2022/04/24 02:53:07;;;;;;;9.05;2.00;;;;;;;;;;4873080;29;20045;-71
2022/04/24 02:55:38;;;;;;;6.72;2.47;;;;;;;;;;4873803;29;20052;-72
2022/04/24 02:58:08;;;;;;;4.70;2.30;;;;;;;;;;4873084;29;20057;-71
2022/04/24 03:00:49;;;;;;;6.03;2.00;;;;;;;;;;4873249;29;20048;-71
2022/04/24 03:03:19;;;;;;;7.03;2.33;;;;;;;;;;4873699;29;20053;-73
2022/04/24 03:05:50;;;;;;;10.05;2.20;;;;;;;;;;4873324;29;20065;-71
2022/04/24 03:08:20;;;;;;;5.93;2.20;;;;;;;;;;4873020;29;20159;-71
2022/04/24 03:10:51;;;;;;;6.53;2.43;;;;;;;;;;4873763;29;20041;-71
2022/04/24 03:13:22;;;;;;;10.95;2.42;;;;;;;;;;4873430;29;20405;-71
2022/04/24 03:15:51;;;;;;;8.57;2.42;;;;;;;;;;4872393;29;20056;-72
2022/04/24 03:18:21;;;;;;;9.57;2.33;;;;;;;;;;4857156;29;20056;-71
2022/04/24 03:20:51;;;;;;;7.43;2.25;;;;;;;;;;4845647;29;20064;-71
2022/04/24 03:23:21;;;;;;;4.63;2.03;;;;;;;;;;4891947;29;20056;-71
2022/04/24 03:25:51;;;;;;;2.63;1.92;;;;;;;;;;4860118;29;20060;-71
2022/04/24 03:28:22;;;;;;;2.75;2.13;;;;;;;;;;4891552;29;20056;-71
2022/04/24 03:30:51;;;;;;;10.55;2.55;;;;;;;;;;4891618;29;20049;-72
2022/04/24 03:33:19;;;;;;;4.18;2.50;;;;;;;;;;4891359;29;20053;-72
2022/04/24 03:35:49;;;;;;;3.20;2.17;;;;;;;;;;4891406;29;20057;-73
2022/04/24 03:38:19;;;;;;;3.03;2.05;;;;;;;;;;4891577;29;20056;-71
2022/04/24 03:40:49;;;;;;;5.63;2.28;;;;;;;;;;4890772;29;20044;-71
2022/04/24 03:43:19;;;;;;;2.55;2.00;;;;;;;;;;4891332;29;20052;-71
2022/04/24 03:45:48;;;;;;;5.00;2.20;;;;;;;;;;4890973;29;20052;-72
2022/04/24 03:48:18;;;;;;;5.30;2.15;;;;;;;;;;4891017;29;20060;-71
2022/04/24 03:50:48;;;;;;;6.88;2.20;;;;;;;;;;4890602;29;20049;-71
2022/04/24 03:53:18;;;;;;;4.05;1.95;;;;;;;;;;4891071;29;20071;-71
2022/04/24 03:55:48;;;;;;;7.60;2.53;;;;;;;;;;4891700;29;20055;-71
2022/04/24 03:58:17;;;;;;;3.95;2.35;;;;;;;;;;4890912;29;20496;-71
2022/04/24 04:00:47;;;;;;;5.13;2.17;;;;;;;;;;4890866;29;20317;-71
2022/04/24 04:03:17;;;;;;;4.72;2.05;;;;;;;;;;4890554;29;20055;-71
2022/04/24 04:05:47;;;;;;;3.53;2.13;;;;;;;;;;4890431;29;20048;-71
2022/04/24 04:08:17;;;;;;;2.53;2.10;;;;;;;;;;4890707;29;20048;-71
2022/04/24 04:10:47;;;;;;;4.40;2.58;;;;;;;;;;4890216;29;20052;-71
2022/04/24 04:13:17;;;;;;;4.53;2.20;;;;;;;;;;4890832;29;20056;-71
2022/04/24 04:15:46;;;;;;;14.27;2.70;;;;;;;;;;4890701;29;20066;-71
2022/04/24 04:18:16;;;;;;;5.60;2.30;;;;;;;;;;4891069;29;20057;-71
2022/04/24 04:20:46;;;;;;;9.50;2.58;;;;;;;;;;4890833;29;20056;-71
2022/04/24 04:23:16;;;;;;;4.80;2.65;;;;;;;;;;4890659;29;20053;-71
2022/04/24 04:25:46;;;;;;;4.15;2.58;;;;;;;;;;4890651;29;20064;-71
2022/04/24 04:28:16;;;;;;;3.42;2.10;;;;;;;;;;4890705;29;20059;-71
2022/04/24 04:30:45;;;;;;;4.05;2.25;;;;;;;;;;4890177;29;20067;-71
2022/04/24 04:33:15;;;;;;;3.20;2.22;;;;;;;;;;4891195;29;20272;-71
2022/04/24 04:35:46;;;;;;;6.10;2.25;;;;;;;;;;4873255;29;20061;-71
2022/04/24 04:38:16;;;;;;;;;;;;;;;;;;4891411;29;20408;-71
2022/04/24 04:40:46;;;;;;;5.32;2.20;;;;;;;;;;4891008;29;20489;-71
2022/04/24 04:43:15;;;;;;;3.00;2.10;;;;;;;;;;4891115;29;20053;-72
2022/04/24 04:45:47;;;;;;;8.70;2.30;;;;;;;;;;4890989;29;20052;-71
2022/04/24 04:48:17;;;;;;;10.52;2.60;;;;;;;;;;4890565;29;20068;-72
2022/04/24 04:50:47;;;;;;;3.90;2.28;;;;;;;;;;4890225;29;20065;-71
2022/04/24 04:53:17;;;;;;;7.50;2.50;;;;;;;;;;4889884;29;20064;-71
2022/04/24 04:55:47;;;;;;;8.75;2.33;;;;;;;;;;4890867;29;20048;-71
2022/04/24 04:58:18;;;;;;;4.53;2.30;;;;;;;;;;4890419;29;20060;-71
2022/04/24 05:00:47;;;;;;;6.10;2.10;;;;;;;;;;4890176;29;20048;-71
2022/04/24 05:03:18;;;;;;;;;;;;;;;;;;4892744;29;20068;-71
2022/04/24 05:05:48;;;;;;;2.90;2.10;;;;;;;;;;4894206;29;19923;-71
2022/04/24 05:08:18;;;;;;;4.15;2.30;;;;;;;;;;4894451;29;20534;-71
2022/04/24 05:10:48;;;;;;;6.72;2.20;;;;;;;;;;4893427;29;20064;-71
2022/04/24 05:13:18;;;;;;;3.38;2.15;;;;;;;;;;4893613;29;20056;-71
2022/04/24 05:15:48;;;;;;;3.10;2.20;;;;;;;;;;4894005;29;20053;-71
2022/04/24 05:18:19;;;;;;;3.10;2.45;;;;;;;;;;4893814;29;20072;-71
2022/04/24 05:20:50;;;;;;;3.60;2.30;;;;;;;;;;4893629;29;20053;-71
2022/04/24 05:23:20;;;;;;;;;;;;;;;;;;4894208;29;20792;-71
2022/04/24 05:25:50;;;;;;;6.38;2.22;;;;;;;;;;4892992;29;20323;-71
2022/04/24 05:28:19;;;;;;;4.10;2.45;;;;;;;;;;4894243;29;20056;-71
2022/04/24 05:30:49;;;;;;;6.88;2.70;;;;;;;;;;4893546;29;20527;-71
2022/04/24 05:33:19;;;;;;;3.85;2.13;;;;;;;;;;4893699;29;20063;-71
2022/04/24 05:35:50;;;;;;;6.38;2.63;;;;;;;;;;4893700;29;20634;-71
2022/04/24 05:38:19;;;;;;;12.48;2.40;;;;;;;;;;4893129;29;20055;-72
2022/04/24 05:40:49;;;;;;;5.35;2.53;;;;;;;;;;4893325;29;20053;-71
2022/04/24 05:43:19;;;;;;;5.85;2.33;;;;;;;;;;4893670;29;20053;-72
2022/04/24 05:45:49;;;;;;;9.75;2.35;;;;;;;;;;4893905;29;20059;-71
2022/04/24 05:48:19;;;;;;;8.30;3.08;;;;;;;;;;4894195;29;20083;-71
2022/04/24 05:50:49;;;;;;;4.70;2.10;;;;;;;;;;4892837;29;20452;-71
2022/04/24 05:53:19;;;;;;;7.65;2.13;;;;;;;;;;4893464;29;20044;-71
2022/04/24 05:55:49;;;;;;;4.20;2.00;;;;;;;;;;4893701;29;20053;-72
2022/04/24 05:58:19;;;;;;;3.17;1.75;;;;;;;;;;4893150;29;20057;-71
2022/04/24 06:00:49;;;;;;;1.75;1.58;;;;;;;;;;4893361;29;20535;-71
2022/04/24 06:03:19;;;;;;;5.47;2.25;;;;;;;;;;4892412;29;20546;-71
2022/04/24 06:05:49;;;;;;;3.15;1.90;;;;;;;;;;4893717;29;20061;-71
2022/04/24 06:08:19;;;;;;;2.72;1.90;;;;;;;;;;4892757;29;20131;-71
2022/04/24 06:10:49;;;;;;;3.28;1.95;;;;;;;;;;4892916;29;20044;-71
2022/04/24 06:13:20;;;;;;;6.22;1.98;;;;;;;;;;4893500;29;20064;-71
2022/04/24 06:15:55;;;;;;;2.58;1.92;;;;;;;;;;4892699;29;20040;-71
2022/04/24 06:18:25;;;;;;;3.75;2.03;;;;;;;;;;4893272;29;20491;-71
2022/04/24 06:20:55;;;;;;;2.75;1.98;;;;;;;;;;4892443;29;20067;-72
2022/04/24 06:23:27;;;;;;;4.72;2.00;;;;;;;;;;4892741;29;20377;-71
2022/04/24 06:25:58;;;;;;;4.28;2.00;;;;;;;;;;4875817;29;20049;-71
2022/04/24 06:28:28;;;;;;;2.53;1.65;;;;;;;;;;4892078;29;20063;-71
2022/04/24 06:30:58;;;;;;;5.03;2.00;;;;;;;;;;4891898;29;20044;-71
2022/04/24 06:33:28;;;;;;;2.85;2.10;;;;;;;;;;4892635;29;20049;-71
2022/04/24 06:35:58;;;;;;;5.47;2.40;;;;;;;;;;4892745;29;20492;-71
2022/04/24 06:38:28;;;;;;;4.50;2.30;;;;;;;;;;4892935;29;20060;-71
2022/04/24 06:40:57;;;;;;;7.68;2.30;;;;;;;;;;4892035;29;20049;-71
2022/04/24 06:43:27;;;;;;;7.50;2.30;;;;;;;;;;4892413;29;20072;-72
2022/04/24 06:45:57;;;;;;;8.23;2.30;;;;;;;;;;4892693;29;20511;-71
2022/04/24 06:48:27;;;;;;;3.65;1.90;;;;;;;;;;4892532;29;20393;-71
2022/04/24 06:51:04;;;;;;;5.07;2.35;;;;;;;;;;4876307;29;20075;-71
2022/04/24 06:53:35;;;;;;;4.25;2.20;;;;;;;;;;4892077;29;20051;-72
2022/04/24 06:56:05;;;;;;;2.70;2.22;;;;;;;;;;4892444;29;20053;-71
2022/04/24 06:58:35;;;;;;;6.57;2.05;;;;;;;;;;4891810;29;20079;-71
2022/04/24 07:01:13;;;;;;;7.38;2.10;;;;;;;;;;4892313;29;20059;-72
2022/04/24 07:03:43;;;;;;;5.13;2.20;;;;;;;;;;4891343;29;20057;-71
2022/04/24 07:06:13;;;;;;;9.02;2.60;;;;;;;;;;4891618;29;20061;-71
2022/04/24 07:08:43;;;;;;;3.42;1.80;;;;;;;;;;4875869;29;20060;-70
2022/04/24 07:11:13;;;;;;;3.92;2.33;;;;;;;;;;4891113;29;20049;-71
2022/04/24 07:13:44;;;;;;;2.67;1.73;;;;;;;;;;4891612;29;20055;-72
2022/04/24 07:16:14;;;;;;;4.30;2.17;;;;;;;;;;4892191;29;20048;-71
2022/04/24 07:18:45;;;;;;;6.55;2.20;;;;;;;;;;4875018;29;20052;-72
2022/04/24 07:21:15;;;;;;;4.28;1.98;;;;;;;;;;4891449;29;20838;-71
2022/04/24 07:23:45;;;;;;;3.92;2.10;;;;;;;;;;4874843;29;20059;-71
2022/04/24 07:26:15;;;;;;;5.47;2.00;;;;;;;;;;4891328;29;20040;-71
2022/04/24 07:28:44;;;;;;;1.73;1.60;;;;;;;;;;4888695;29;20079;-71
2022/04/24 07:31:18;;;;;;;2.17;1.60;;;;;;;;;;4891476;29;20053;-70
2022/04/24 07:33:48;;;;;;;2.70;1.40;;;;;;;;;;4891428;29;20055;-72
2022/04/24 07:36:19;;;;;;;4.20;1.90;;;;;;;;;;4891381;29;20484;-71
2022/04/24 07:38:50;;;;;;;3.35;1.38;;;;;;;;;;4891522;29;20076;-71
2022/04/24 07:41:21;;;;;;;4.30;2.00;;;;;;;;;;4891784;29;20049;-71
2022/04/24 07:43:51;;;;;;;3.63;1.65;;;;;;;;;;4891280;29;20060;-71
2022/04/24 07:46:21;;;;;;;4.93;1.80;;;;;;;;;;4891496;29;20483;-71
2022/04/24 07:48:51;;;;;;;2.22;1.55;;;;;;;;;;4890810;29;20075;-71
2022/04/24 07:51:21;;;;;;;1.50;1.40;;;;;;;;;;4890596;29;20665;-71
2022/04/24 07:53:51;;;;;;;4.00;1.83;;;;;;;;;;4890854;29;20461;-71
2022/04/24 07:56:21;;;;;;;2.20;1.60;;;;;;;;;;4890012;29;20657;-71
2022/04/24 07:58:52;;;;;;;2.30;1.50;;;;;;;;;;4873893;29;20060;-71
2022/04/24 08:01:22;;;;;;;2.50;1.50;;;;;;;;;;4891947;29;20067;-72
2022/04/24 08:03:52;;;;;;;1.95;1.60;;;;;;;;;;4891669;29;20060;-72
2022/04/24 08:06:22;;;;;;;2.05;1.60;;;;;;;;;;4890421;29;20049;-71
2022/04/24 08:08:52;;;;;;;4.03;1.65;;;;;;;;;;4890092;29;20048;-71
2022/04/24 08:11:22;;;;;;;4.20;1.92;;;;;;;;;;4891042;29;20404;-72
2022/04/24 08:13:52;;;;;;;1.98;1.63;;;;;;;;;;4891184;29;20064;-71
2022/04/24 08:16:26;;;;;;;3.67;1.52;;;;;;;;;;4889896;29;20064;-71
2022/04/24 08:19:01;;;;;;;4.60;1.70;;;;;;;;;;4890980;29;20079;-71
2022/04/24 08:21:32;;;;;;;4.35;1.30;;;;;;;;;;4890501;29;20064;-71
2022/04/24 08:24:01;;;;;;;6.43;1.73;;;;;;;;;;4891435;29;20059;-71
2022/04/24 08:26:32;;;;;;;2.47;1.58;;;;;;;;;;4890894;29;20040;-71
2022/04/24 08:29:01;;;;;;;2.33;1.38;;;;;;;;;;4890811;29;20523;-71
2022/04/24 08:31:31;;;;;;;1.73;1.30;;;;;;;;;;4890539;29;20052;-71
2022/04/24 08:34:01;;;;;;;3.92;1.40;;;;;;;;;;4890589;29;20044;-71
2022/04/24 08:36:31;;;;;;;3.38;1.42;;;;;;;;;;4889208;29;20421;-72
2022/04/24 08:39:01;;;;;;;1.23;1.10;;;;;;;;;;4892688;29;20837;-71
2022/04/24 08:41:32;;;;;;;3.33;1.45;;;;;;;;;;4894090;29;20056;-71
2022/04/24 08:44:07;;;;;;;2.22;1.30;;;;;;;;;;4876827;29;20064;-71
2022/04/24 08:46:37;;;;;;;2.13;1.50;;;;;;;;;;4894896;29;20053;-72
2022/04/24 08:49:09;;;;;;;1.95;1.50;;;;;;;;;;4894458;29;20530;-71
2022/04/24 08:51:40;;;;;;;1.67;1.33;;;;;;;;;;4894416;29;20049;-71
2022/04/24 08:54:13;;;;;;;1.95;1.40;;;;;;;;;;4890758;29;20059;-71
2022/04/24 08:56:44;;;;;;;2.28;1.50;;;;;;;;;;4890775;29;20412;-71
2022/04/24 08:59:15;;;;;;;3.28;1.30;;;;;;;;;;4874071;29;20059;-71
2022/04/24 09:01:45;;;;;;;3.85;1.55;;;;;;;;;;4893672;29;20056;-71
2022/04/24 09:04:16;;;;;;;6.65;1.52;;;;;;;;;;4894204;29;20468;-72
2022/04/24 09:06:56;;;;;;;2.70;1.75;;;;;;;;;;4893315;29;20055;-71
2022/04/24 09:09:27;;;;;;;4.13;1.70;;;;;;;;;;4894392;29;20393;-71
2022/04/24 09:12:07;;;;;;;2.50;1.77;;;;;;;;;;4894591;29;20052;-71
2022/04/24 09:15:03;;;;;;;3.35;2.15;;;;;;;;;;4893433;29;20393;-71
2022/04/24 09:17:34;;;;;;;1.98;1.60;;;;;;;;;;4894108;29;20067;-71
2022/04/24 09:20:17;;;;;;;3.17;1.73;;;;;;;;;;4893536;29;20052;-71
2022/04/24 09:22:48;;;;;;;2.05;1.55;;;;;;;;;;4893920;29;20079;-71
2022/04/24 09:25:18;;;;;;;2.97;1.63;;;;;;;;;;4876385;29;20060;-71
2022/04/24 09:27:55;;;;;;;3.00;1.90;;;;;;;;;;4893640;29;20449;-71
2022/04/24 09:30:27;;;;;;;2.20;1.60;;;;;;;;;;4893402;29;20412;-71
2022/04/24 09:32:57;;;;;;;2.72;1.77;;;;;;;;;;4894229;29;20045;-72
2022/04/24 09:35:33;;;;;;;5.47;1.73;;;;;;;;;;4893597;29;20060;-72
2022/04/24 09:38:17;;;;;;;3.03;1.70;;;;;;;;;;4893320;29;20052;-71
2022/04/24 09:40:49;;;;;;;5.50;1.58;;;;;;;;;;4893489;29;20053;-71
2022/04/24 09:43:19;;;;;;;2.45;1.58;;;;;;;;;;4892983;29;20522;-71
2022/04/24 09:45:54;;;;;;;1.40;1.30;;;;;;;;;;4893873;29;20060;-72
2022/04/24 09:48:26;;;;;;;2.33;1.70;;;;;;;;;;4892373;29;20508;-71
2022/04/24 09:50:57;;;;;;;;;;;;;;;;;;4893139;29;20049;-71
2022/04/24 09:53:29;;;;;;;1.75;1.50;;;;;;;;;;4876635;29;20466;-71
2022/04/24 09:56:00;;;;;;;3.10;1.88;;;;;;;;;;4893618;29;20508;-71
2022/04/24 09:58:30;;;;;;;3.67;1.80;;;;;;;;;;4893330;29;20059;-71
2022/04/24 10:01:03;;;;;;;2.00;1.30;;;;;;;;;;4892698;29;20572;-71
2022/04/24 10:03:39;;;;;;;5.20;1.55;;;;;;;;;;4893130;29;20067;-71
2022/04/24 10:06:10;;;;;;;2.75;1.67;;;;;;;;;;4892486;29;20060;-71
2022/04/24 10:08:41;;;;;;;3.33;2.05;;;;;;;;;;4875965;29;20056;-71
2022/04/24 10:11:12;;;;;;;6.70;1.67;;;;;;;;;;4892853;29;20629;-71
2022/04/24 10:13:45;;;;;;;4.70;1.73;;;;;;;;;;4892749;29;20056;-72
2022/04/24 10:16:44;;;;;;;3.03;1.80;;;;;;;;;;4892902;29;20505;-71
2022/04/24 10:19:53;;;;;;;2.25;1.65;;;;;;;;;;4893399;29;20037;-71
2022/04/24 10:22:44;;;;;;;3.28;1.67;;;;;;;;;;4884442;29;20057;-71
2022/04/24 10:25:15;;;;;;;2.20;1.80;;;;;;;;;;4893247;29;20068;-74
2022/04/24 10:27:47;;;;;;;;;;;;;;;;;;4893429;29;20063;-71
2022/04/24 10:30:23;;;;;;;1.55;1.17;;;;;;;;;;4892195;29;19935;-71
2022/04/24 10:33:24;;;;;;;2.83;1.88;;;;;;;;;;4892948;29;20056;-71
2022/04/24 10:36:02;;;;;;;;;;;;;;;;;;4893209;29;20056;-71
2022/04/24 10:39:00;;;;;;;4.05;1.75;;;;;;;;;;4892311;29;19934;-71
2022/04/24 10:41:58;;;;;;;1.70;1.30;;;;;;;;;;4892909;29;20044;-73
2022/04/24 10:44:28;;;;;;;2.95;1.52;;;;;;;;;;4893189;29;20052;-72
2022/04/24 10:46:59;;;;;;;4.65;2.08;;;;;;;;;;4892182;29;20055;-71
2022/04/24 10:49:36;;;;;;;3.05;1.85;;;;;;;;;;4892502;29;20059;-72
2022/04/24 10:52:07;;;;;;;2.42;1.80;;;;;;;;;;4892600;29;20067;-71
2022/04/24 10:54:39;;;;;;;8.35;2.22;;;;;;;;;;4892563;29;20059;-71
2022/04/24 10:57:21;;;;;;;2.30;1.42;;;;;;;;;;4891856;29;20048;-71
2022/04/24 10:59:55;;;;;;;2.15;1.58;;;;;;;;;;4892182;29;20512;-72
2022/04/24 11:02:33;;;;;;;3.42;1.70;;;;;;;;;;4891818;29;20048;-72
2022/04/24 11:05:09;;;;;;;5.43;1.95;;;;;;;;;;4892858;29;20048;-72
2022/04/24 11:07:40;;;;;;;5.03;1.77;;;;;;;;;;4889858;29;20053;-71
2022/04/24 11:10:14;;;;;;;3.90;1.77;;;;;;;;;;4875214;29;20104;-74
2022/04/24 11:12:46;;;;;;;3.40;1.42;;;;;;;;;;4892040;29;20060;-72
2022/04/24 11:15:16;;;;;;;2.90;1.40;;;;;;;;;;4891823;29;20068;-72
2022/04/24 11:17:46;;;;;;;7.32;1.70;;;;;;;;;;4891765;29;20059;-72
2022/04/24 11:20:18;;;;;;;9.95;2.75;;;;;;;;;;4891690;29;20483;-71
2022/04/24 11:22:51;;;;;;;9.65;1.33;;;;;;;;;;4891764;29;20052;-72
2022/04/24 11:25:24;;;;;;;5.82;1.15;;;;;;;;;;4891372;29;20048;-72
2022/04/24 11:27:56;;;;;;;2.38;1.10;;;;;;;;;;4891052;29;20048;-72
2022/04/24 11:30:33;;;;;;;5.10;1.42;;;;;;;;;;4891390;29;20052;-72
2022/04/24 11:33:08;;;;;;;5.43;1.73;;;;;;;;;;4892340;29;20416;-73
2022/04/24 11:35:40;;;;;;;5.50;1.52;;;;;;;;;;4891902;29;20533;-72
2022/04/24 11:38:13;;;;;;;4.90;1.10;;;;;;;;;;4891217;29;20551;-72
2022/04/24 11:40:49;;;;;;;6.80;1.13;;;;;;;;;;4890982;29;20052;-73
2022/04/24 11:43:19;;;;;;;2.78;1.38;;;;;;;;;;4890534;29;20513;-72
2022/04/24 11:51:32;;;;;;;2.03;1.30;;;;;;;;;;4890451;29;20048;-72
2022/04/24 11:54:09;;;;;;;3.17;1.02;;;;;;;;;;4891766;29;20052;-72
2022/04/24 11:56:39;;;;;;;2.70;1.23;;;;;;;;;;4891797;29;20416;-73
2022/04/24 11:59:15;;;;;;;2.13;1.30;;;;;;;;;;4891256;29;20048;-73
2022/04/24 12:01:54;;;;;;;11.18;1.83;;;;;;;;;;4891192;29;20505;-72
2022/04/24 12:04:33;;;;;;;4.57;1.40;;;;;;;;;;4891298;29;20064;-72
2022/04/24 12:07:06;;;;;;;4.50;1.98;;;;;;;;;;4891337;29;20063;-73
2022/04/24 12:09:38;;;;;;;15.02;2.38;;;;;;;;;;4891503;29;20053;-72
2022/04/24 12:12:17;;;;;;;4.63;1.13;;;;;;;;;;4891914;29;20061;-72
2022/04/24 12:14:54;;;;;;;7.38;1.50;;;;;;;;;;4894855;29;20053;-73
2022/04/24 12:17:25;;;;;;;4.50;1.13;;;;;;;;;;4894790;29;20068;-73
2022/04/24 12:19:56;;;;;;;5.07;1.20;;;;;;;;;;4894562;29;20507;-73
2022/04/24 12:22:29;;;;;;;11.18;1.40;;;;;;;;;;4895592;29;20065;-74
2022/04/24 12:25:09;;;;;;;14.73;1.88;;;;;;;;;;4894804;29;20412;-71
2022/04/24 12:27:50;;;;;;;7.68;1.50;;;;;;;;;;4894905;29;20045;-71
2022/04/24 12:30:20;;;;;;;4.35;1.40;;;;;;;;;;4894383;29;20479;-71
2022/04/24 12:32:51;;;;;;;8.38;1.27;;;;;;;;;;4894178;29;20053;-71
2022/04/24 12:35:35;;;;;;;2.95;0.80;;;;;;;;;;4894712;29;20057;-72
2022/04/24 12:38:16;;;;;;;10.35;2.15;;;;;;;;;;4894755;29;20497;-71
2022/04/24 12:40:57;;;;;;;8.60;1.08;;;;;;;;;;4893954;29;20606;-72
2022/04/24 12:43:30;;;;;;;2.08;0.98;;;;;;;;;;4893618;29;20048;-71
2022/04/24 12:46:01;;;;;;;11.32;0.95;;;;;;;;;;4893908;29;20044;-71
2022/04/24 12:48:31;;;;;;;7.10;1.10;;;;;;;;;;4894529;29;20158;-73
2022/04/24 12:51:01;;;;;;;5.30;0.97;;;;;;;;;;4893938;29;20041;-73
2022/04/24 12:53:31;;;;;;;5.68;1.17;;;;;;;;;;4877510;29;20071;-73
2022/04/24 12:56:00;;;;;;;28.15;2.90;;;;;;;;;;4893272;29;20096;-74
2022/04/24 12:58:30;;;;;;;3.38;1.00;;;;;;;;;;4893752;29;20056;-72
2022/04/24 13:01:01;;;;;;;10.05;1.10;;;;;;;;;;4891312;29;20509;-73
2022/04/24 13:03:31;;;;;;;3.58;0.70;;;;;;;;;;4889897;29;20575;-73
2022/04/24 13:06:01;;;;;;;12.17;1.20;;;;;;;;;;4891027;29;20040;-73
2022/04/24 13:08:31;;;;;;;5.30;0.82;;;;;;;;;;4892093;29;20055;-73
2022/04/24 13:11:01;;;;;;;4.60;0.90;;;;;;;;;;4893201;29;20059;-73
2022/04/24 13:13:33;;;;;;;1.10;0.80;;;;;;;;;;4893891;29;20044;-73
2022/04/24 13:18:54;;;;;;;5.47;1.17;;;;;;;;;;4892939;29;20052;-72
2022/04/24 13:21:24;;;;;;;6.70;1.00;;;;;;;;;;4893283;29;20056;-73
2022/04/24 13:23:54;;;;;;;4.55;1.10;;;;;;;;;;4891334;29;20056;-73
2022/04/24 13:26:24;;;;;;;5.60;1.20;;;;;;;;;;4892857;29;20048;-73
2022/04/24 13:28:53;;;;;;;6.00;1.00;;;;;;;;;;4893531;29;20051;-74
2022/04/24 13:31:23;;;;;;;7.00;0.98;;;;;;;;;;4893176;29;20056;-74
2022/04/24 13:34:02;;;;;;;13.02;1.88;;;;;;;;;;4893390;29;20547;-74
2022/04/24 13:36:32;;;;;;;2.58;0.80;;;;;;;;;;4892649;29;20057;-74
2022/04/24 13:39:08;;;;;;;3.35;0.80;;;;;;;;;;4877137;29;20060;-73
2022/04/24 13:41:39;;;;;;;4.28;0.95;;;;;;;;;;4893234;29;20048;-75
2022/04/24 13:44:09;;;;;;;7.05;0.88;;;;;;;;;;4891725;29;20057;-74
2022/04/24 13:46:39;;;;;;;3.83;0.98;;;;;;;;;;4893515;29;20056;-74
2022/04/24 13:49:09;;;;;;;9.30;1.43;;;;;;;;;;4893287;29;20103;-74
2022/04/24 13:51:39;;;;;;;10.07;0.90;;;;;;;;;;4893069;29;20659;-74
2022/04/24 13:54:12;;;;;;;3.13;1.03;;;;;;;;;;4891959;29;20773;-74
2022/04/24 13:56:42;;;;;;;1.92;0.60;;;;;;;;;;4892655;29;20583;-74
2022/04/24 13:59:16;;;;;;;0.80;0.65;;;;;;;;;;4893443;29;20520;-74
2022/04/24 14:01:46;;;;;;;1.45;0.70;;;;;;;;;;4893330;29;20048;-74
2022/04/24 14:04:17;;;;;;;;;;;;;;;;;;4892845;29;20087;-75
2022/04/24 14:06:48;;;;;;;0.70;0.50;;;;;;;;;;4893216;29;19927;-74
2022/04/24 14:09:19;;;;;;;1.98;0.70;;;;;;;;;;4892022;29;20053;-75
2022/04/24 14:11:52;;;;;;;3.42;0.82;;;;;;;;;;4893059;29;20048;-74
2022/04/24 14:14:24;;;;;;;2.83;0.70;;;;;;;;;;4892581;29;20516;-75
2022/04/24 14:16:54;;;;;;;1.30;0.60;;;;;;;;;;4892377;29;20049;-73
2022/04/24 14:19:24;;;;;;;2.88;0.63;;;;;;;;;;4891493;29;20056;-76
2022/04/24 14:21:55;;;;;;;1.23;0.50;;;;;;;;;;4875740;29;20057;-75
2022/04/24 14:24:24;;;;;;;;;;;;;;;;;;4893096;29;20053;-74
2022/04/24 14:26:55;;;;;;;4.30;0.70;;;;;;;;;;4891960;29;19924;-73
2022/04/24 14:29:24;;;;;;;6.20;0.68;;;;;;;;;;4892331;29;20045;-74
2022/04/24 14:31:55;;;;;;;2.88;0.80;;;;;;;;;;4891780;29;20056;-74
2022/04/24 14:34:25;;;;;;;1.95;0.63;;;;;;;;;;4891989;29;20071;-73
2022/04/24 14:36:57;;;;;;;8.25;0.77;;;;;;;;;;4891970;29;20057;-74
2022/04/24 14:39:29;;;;;;;4.67;0.77;;;;;;;;;;4892221;29;20056;-73
2022/04/24 14:42:00;;;;;;;4.22;0.70;;;;;;;;;;4892437;29;20055;-74
2022/04/24 14:44:31;;;;;;;3.90;0.70;;;;;;;;;;4892572;29;20481;-73
2022/04/24 14:55:46;;;;;;;0.40;0.40;;;;;;;;;;4891693;29;20063;-74
2022/04/24 14:58:18;;;;;;;9.40;0.80;;;;;;;;;;4891755;29;20369;-74
2022/04/24 15:00:49;;;;;;;2.88;0.63;;;;;;;;;;4891202;29;20052;-73
2022/04/24 15:03:19;;;;;;;0.73;0.47;;;;;;;;;;4891570;29;20057;-74
2022/04/24 15:05:49;;;;;;;2.35;0.90;;;;;;;;;;4892151;29;20052;-73
2022/04/24 15:08:20;;;;;;;2.05;0.68;;;;;;;;;;4891879;29;20049;-75
2022/04/24 15:10:51;;;;;;;1.00;0.68;;;;;;;;;;4892578;29;20527;-74
2022/04/24 15:13:21;;;;;;;1.75;0.70;;;;;;;;;;4873884;29;20526;-74
2022/04/24 15:15:50;;;;;;;0.65;0.35;;;;;;;;;;4891859;29;20072;-75
2022/04/24 15:18:27;;;;;;;2.08;0.60;;;;;;;;;;4892001;29;20057;-73
2022/04/24 15:20:57;;;;;;;0.98;0.40;;;;;;;;;;4890166;29;20067;-74
2022/04/24 15:23:26;;;;;;;3.83;0.77;;;;;;;;;;4891425;29;20041;-74
2022/04/24 15:25:56;;;;;;;3.23;0.60;;;;;;;;;;4891835;29;20297;-75